Time;durP1;ratioP1;P1;durP2;ratioP2;P2;SDS_P1;SDS_P2;PMS_P1;PMS_P2;Temp;Humidity;BMP_temperature;BMP_pressure;BME280_temperature;BME280_humidity;BME280_pressure;Samples;Min_cycle;Max_cycle;Signal;HPM_P1;HPM_P2
2022/06/01 00:01:22;;;;;;;10.80;9.93;;;;;;;10.41;100.00;96814.78;4957125;28;20221;-54
2022/06/01 00:03:50;;;;;;;11.17;10.27;;;;;;;10.52;100.00;96821.41;4955854;28;20916;-49
2022/06/01 00:06:19;;;;;;;10.93;10.17;;;;;;;10.65;100.00;96826.78;4967699;28;20301;-46
2022/06/01 00:08:48;;;;;;;11.30;10.40;;;;;;;10.76;100.00;96825.44;4934515;28;20324;-48
2022/06/01 00:11:16;;;;;;;12.33;11.43;;;;;;;10.76;100.00;96820.13;4944440;28;20241;-54
2022/06/01 00:13:45;;;;;;;12.00;11.10;;;;;;;10.86;100.00;96825.91;4963546;28;20233;-49
2022/06/01 00:16:13;;;;;;;12.40;11.40;;;;;;;10.98;100.00;96828.00;4956494;28;21967;-45
2022/06/01 00:18:41;;;;;;;13.30;12.23;;;;;;;10.92;100.00;96826.13;4951795;28;20407;-46
2022/06/01 00:21:09;;;;;;;13.97;12.77;;;;;;;11.05;100.00;96826.22;4966667;28;20209;-47
2022/06/01 00:23:38;;;;;;;13.43;12.43;;;;;;;11.13;100.00;96825.22;4909751;28;20550;-48
2022/06/01 00:26:07;;;;;;;11.57;10.57;;;;;;;11.04;100.00;96826.41;4970387;28;20211;-48
2022/06/01 00:28:36;;;;;;;12.13;11.20;;;;;;;11.15;100.00;96836.44;4938572;28;20289;-47
2022/06/01 00:31:04;;;;;;;12.93;12.03;;;;;;;10.97;100.00;96831.66;4968618;28;20552;-49
2022/06/01 00:33:33;;;;;;;12.73;11.53;;;;;;;10.94;100.00;96837.34;4929434;28;20213;-46
2022/06/01 00:36:03;;;;;;;11.70;10.70;;;;;;;11.00;100.00;96836.59;4968206;28;20388;-50
2022/06/01 00:38:31;;;;;;;12.37;11.37;;;;;;;10.91;100.00;96835.94;4960098;28;20276;-49
2022/06/01 00:41:00;;;;;;;11.93;11.03;;;;;;;10.97;100.00;96843.09;4940953;28;20353;-51
2022/06/01 00:43:42;;;;;;;11.70;10.83;;;;;;;10.94;100.00;96838.19;4939600;28;20282;-49
2022/06/01 00:46:10;;;;;;;10.57;9.83;;;;;;;10.83;100.00;96836.88;4964809;28;20205;-47
2022/06/01 00:48:43;;;;;;;11.80;10.80;;;;;;;10.90;100.00;96846.72;4942136;28;20233;-47
2022/06/01 00:51:13;;;;;;;11.70;10.80;;;;;;;10.80;100.00;96855.84;4962116;28;20633;-49
2022/06/01 00:53:42;;;;;;;11.70;10.80;;;;;;;10.78;100.00;96851.72;4965923;28;20295;-48
2022/06/01 00:56:14;;;;;;;12.50;11.50;;;;;;;10.77;100.00;96853.56;4931379;28;20670;-47
2022/06/01 00:58:46;;;;;;;12.13;11.23;;;;;;;10.78;100.00;96855.22;4933814;28;20323;-49
2022/06/01 01:01:16;;;;;;;12.03;11.03;;;;;;;10.75;100.00;96852.13;4964576;28;20238;-52
2022/06/01 01:03:46;;;;;;;12.63;11.60;;;;;;;10.73;100.00;96836.44;4951119;28;20317;-49
2022/06/01 01:06:20;;;;;;;12.07;11.17;;;;;;;10.69;100.00;96841.28;4947382;28;20241;-50
2022/06/01 01:08:48;;;;;;;11.20;10.07;;;;;;;10.65;100.00;96844.53;4964805;28;20241;-47
2022/06/01 01:11:20;;;;;;;11.53;10.70;;;;;;;10.63;100.00;96841.25;4925338;28;20813;-48
2022/06/01 01:13:51;;;;;;;11.87;10.97;;;;;;;10.58;100.00;96836.50;4932245;28;20237;-48
2022/06/01 01:16:20;;;;;;;12.83;11.73;;;;;;;10.76;100.00;96859.06;4963034;28;20286;-50
2022/06/01 01:18:51;;;;;;;12.90;11.90;;;;;;;10.88;100.00;96862.81;4944509;28;20214;-49
2022/06/01 01:21:26;;;;;;;11.47;10.57;;;;;;;10.82;100.00;96869.72;4947025;28;20661;-51
2022/06/01 01:24:00;;;;;;;11.60;10.70;;;;;;;10.85;100.00;96874.63;4962872;28;20515;-51
2022/06/01 01:26:30;;;;;;;12.10;11.20;;;;;;;10.90;100.00;96871.41;4924213;28;20304;-51
2022/06/01 01:28:58;;;;;;;12.23;11.20;;;;;;;10.90;100.00;96871.41;4964127;28;20493;-50
2022/06/01 01:31:27;;;;;;;12.27;11.17;;;;;;;11.07;100.00;96863.97;4937280;28;20701;-53
2022/06/01 01:33:56;;;;;;;12.93;11.93;;;;;;;11.27;100.00;96868.53;4918910;28;20666;-49
2022/06/01 01:36:29;;;;;;;12.33;11.33;;;;;;;11.09;100.00;96861.09;4946798;28;20214;-54
2022/06/01 01:39:02;;;;;;;14.50;13.20;;;;;;;11.00;100.00;96858.59;4966584;28;20686;-46
2022/06/01 01:41:35;;;;;;;13.20;12.10;;;;;;;11.33;100.00;96866.94;4928027;28;21017;-46
2022/06/01 01:44:07;;;;;;;13.13;12.10;;;;;;;11.22;100.00;96865.66;4962230;28;20730;-48
2022/06/01 01:46:36;;;;;;;13.90;12.90;;;;;;;11.34;100.00;96860.63;4940391;28;20217;-50
2022/06/01 01:49:04;;;;;;;12.23;11.40;;;;;;;11.09;100.00;96861.09;4948100;28;20858;-46
2022/06/01 01:51:33;;;;;;;12.53;11.60;;;;;;;10.99;100.00;96848.22;4945867;28;21382;-50
2022/06/01 01:54:01;;;;;;;12.67;11.70;;;;;;;11.05;100.00;96841.28;4964500;28;20896;-49
2022/06/01 01:56:43;;;;;;;12.43;11.50;;;;;;;10.80;100.00;96847.06;4926636;28;20832;-52
2022/06/01 01:59:34;;;;;;;11.77;10.87;;;;;;;10.60;100.00;96847.75;4966004;28;20355;-50
2022/06/01 02:02:07;;;;;;;12.30;11.13;;;;;;;10.59;100.00;96847.91;4941608;28;20237;-47
2022/06/01 02:07:41;;;;;;;10.90;10.10;;;;;;;10.57;100.00;96848.13;4890358;28;20538;-53
2022/06/01 02:12:57;;;;;;;12.97;11.97;;;;;;;10.38;100.00;96841.63;4930560;28;20321;-51
2022/06/01 02:15:29;;;;;;;11.43;10.63;;;;;;;10.28;100.00;96840.13;4967295;28;20462;-52
2022/06/01 02:18:00;;;;;;;11.93;11.03;;;;;;;10.31;100.00;96844.22;4935908;28;21751;-49
2022/06/01 02:20:31;;;;;;;12.20;11.30;;;;;;;10.21;100.00;96833.94;4954469;28;21365;-48
2022/06/01 02:23:00;;;;;;;11.43;10.57;;;;;;;10.25;100.00;96842.31;4948696;28;20308;-47
2022/06/01 02:25:29;;;;;;;13.07;12.07;;;;;;;10.11;100.00;96847.50;4951632;28;20445;-46
2022/06/01 02:27:59;;;;;;;13.63;12.63;;;;;;;10.06;100.00;96849.91;4930578;28;20408;-49
2022/06/01 02:30:32;;;;;;;13.23;12.13;;;;;;;10.23;100.00;96844.34;4965273;28;20207;-50
2022/06/01 02:33:02;;;;;;;12.67;11.67;;;;;;;10.03;100.00;96852.09;4938546;28;20221;-48
2022/06/01 02:35:32;;;;;;;12.93;11.93;;;;;;;9.97;100.00;96853.66;4934879;28;22776;-51
2022/06/01 02:38:02;;;;;;;11.67;10.83;;;;;;;9.83;100.00;96856.19;4953710;28;20233;-49
2022/06/01 02:40:31;;;;;;;12.30;11.30;;;;;;;10.07;100.00;96858.66;4952210;28;20427;-48
2022/06/01 02:43:01;;;;;;;12.17;11.23;;;;;;;9.83;100.00;96858.00;4960588;28;20217;-48
2022/06/01 02:45:29;;;;;;;12.57;11.60;;;;;;;9.78;100.00;96866.50;4944891;28;20224;-48
2022/06/01 02:48:01;;;;;;;12.00;10.90;;;;;;;9.82;100.00;96875.72;4968558;28;20233;-47
2022/06/01 02:50:31;;;;;;;12.93;11.90;;;;;;;9.95;100.00;96879.50;4930729;28;20217;-49
2022/06/01 02:53:00;;;;;;;13.00;12.00;;;;;;;10.05;100.00;96876.56;4968396;28;20818;-49
2022/06/01 02:55:30;;;;;;;14.30;13.20;;;;;;;10.18;100.00;96875.88;4930397;28;20608;-48
2022/06/01 02:58:00;;;;;;;15.50;14.30;;;;;;;10.41;100.00;96870.41;4968257;28;20368;-48
2022/06/01 03:00:33;;;;;;;16.40;15.03;;;;;;;10.65;100.00;96869.16;4928110;28;20319;-48
2022/06/01 03:03:02;;;;;;;13.50;12.40;;;;;;;10.54;100.00;96878.44;4967169;28;20324;-49
2022/06/01 03:05:34;;;;;;;13.30;12.30;;;;;;;10.69;100.00;96873.06;4939623;28;20707;-50
2022/06/01 03:08:04;;;;;;;14.07;12.77;;;;;;;10.46;100.00;96867.19;4949801;28;20284;-49
2022/06/01 03:10:32;;;;;;;14.97;13.77;;;;;;;10.51;100.00;96870.91;4936048;28;20894;-50
2022/06/01 03:13:04;;;;;;;12.93;11.93;;;;;;;10.54;100.00;96870.50;4960270;28;20844;-49
2022/06/01 03:15:32;;;;;;;13.97;12.80;;;;;;;10.54;100.00;96880.31;4912755;28;20264;-48
2022/06/01 03:18:03;;;;;;;16.03;14.73;;;;;;;10.82;100.00;96880.31;4967443;28;20301;-47
2022/06/01 03:20:33;;;;;;;18.33;16.37;;;;;;;11.12;100.00;96872.16;4940090;28;21211;-54
2022/06/01 03:23:03;;;;;;;18.13;16.47;;;;;;;11.12;100.00;96876.63;4948577;28;20288;-47
2022/06/01 03:25:31;;;;;;;19.00;17.30;;;;;;;11.08;100.00;96875.38;4948091;28;20205;-47
2022/06/01 03:28:00;;;;;;;20.83;18.70;;;;;;;11.20;100.00;96868.53;4941615;28;20303;-48
2022/06/01 03:30:30;;;;;;;19.53;17.63;;;;;;;11.30;100.00;96884.06;4925752;28;20464;-46
2022/06/01 03:32:58;;;;;;;19.03;17.13;;;;;;;11.36;100.00;96883.28;4967741;28;20236;-50
2022/06/01 03:35:29;;;;;;;20.30;18.43;;;;;;;11.41;100.00;96875.56;4963344;28;20205;-54
2022/06/01 03:37:58;;;;;;;20.67;18.67;;;;;;;11.53;100.00;96865.19;4928368;28;20825;-49
2022/06/01 03:40:27;;;;;;;25.77;18.57;;;;;;;11.33;100.00;96874.91;4948685;28;20643;-49
2022/06/01 03:42:55;;;;;;;19.53;17.77;;;;;;;11.30;100.00;96878.75;4949231;28;20683;-49
2022/06/01 03:48:11;;;;;;;17.60;15.93;;;;;;;11.59;100.00;96874.19;4940232;28;20288;-46
2022/06/01 03:50:39;;;;;;;18.30;16.60;;;;;;;11.67;100.00;96879.34;4965320;28;20605;-50
2022/06/01 03:53:08;;;;;;;18.00;16.17;;;;;;;11.60;100.00;96875.84;4920902;28;20218;-51
2022/06/01 03:55:36;;;;;;;19.27;16.83;;;;;;;11.59;100.00;96876.84;4966665;28;20741;-47
2022/06/01 03:58:05;;;;;;;18.07;16.43;;;;;;;11.76;100.00;96876.53;4924595;28;20391;-51
2022/06/01 04:00:34;;;;;;;17.40;15.67;;;;;;;11.52;100.00;96876.03;4965259;28;20236;-49
2022/06/01 04:03:02;;;;;;;16.37;14.67;;;;;;;11.52;100.00;96881.31;4896089;28;20253;-50
2022/06/01 04:05:31;;;;;;;16.63;15.17;;;;;;;11.47;100.00;96889.88;4966970;28;20202;-49
2022/06/01 04:08:01;;;;;;;23.40;14.63;;;;;;;11.37;100.00;96886.75;4932736;28;20233;-50
2022/06/01 04:10:30;;;;;;;13.63;12.53;;;;;;;11.56;100.00;96906.44;4966677;28;21729;-52
2022/06/01 04:12:59;;;;;;;16.87;15.07;;;;;;;11.23;100.00;96902.59;4934016;28;20209;-49
2022/06/01 04:15:27;;;;;;;15.10;13.80;;;;;;;11.12;100.00;96911.09;4964426;28;20245;-55
2022/06/01 04:17:56;;;;;;;14.87;13.57;;;;;;;11.18;100.00;96877.69;4923863;28;20779;-50
2022/06/01 04:20:24;;;;;;;14.17;12.93;;;;;;;11.18;100.00;96877.69;4960928;28;20284;-54
2022/06/01 04:22:55;;;;;;;15.27;13.77;;;;;;;11.40;100.00;96883.72;4962289;28;20237;-50
2022/06/01 04:25:24;;;;;;;14.57;13.17;;;;;;;11.56;100.00;96894.00;4942336;28;20217;-54
2022/06/01 04:27:52;;;;;;;14.53;13.33;;;;;;;11.63;100.00;96896.66;4948719;28;20233;-48
2022/06/01 04:30:21;;;;;;;13.97;12.87;;;;;;;11.63;100.00;96906.47;4961523;28;20669;-54
2022/06/01 04:32:52;;;;;;;14.80;13.60;;;;;;;11.69;100.00;96900.38;4932806;28;20689;-51
2022/06/01 04:35:21;;;;;;;13.53;12.23;;;;;;;11.91;100.00;96892.28;4969246;28;20379;-51
2022/06/01 04:37:49;;;;;;;14.10;12.90;;;;;;;11.96;100.00;96892.53;4969593;28;20309;-49
2022/06/01 04:40:22;;;;;;;14.80;13.40;;;;;;;12.00;100.00;96889.28;4941402;28;20985;-51
2022/06/01 04:42:51;;;;;;;13.83;12.70;;;;;;;11.88;100.00;96891.66;4952026;28;20257;-50
2022/06/01 04:45:19;;;;;;;13.00;11.87;;;;;;;11.94;100.00;96894.56;4927190;28;20232;-52
2022/06/01 04:47:47;;;;;;;13.37;12.17;;;;;;;12.01;100.00;96896.22;4937485;28;20233;-55
2022/06/01 04:50:16;;;;;;;14.03;12.70;;;;;;;12.13;100.00;96900.97;4966590;28;20205;-50
2022/06/01 04:52:44;;;;;;;14.20;12.93;;;;;;;12.07;100.00;96893.78;4949386;28;20294;-52
2022/06/01 04:55:12;;;;;;;13.37;12.37;;;;;;;12.21;100.00;96897.28;4964726;28;20937;-45
2022/06/01 04:57:42;;;;;;;13.40;12.20;;;;;;;12.23;100.00;96889.94;4928792;28;20317;-49
2022/06/01 05:00:11;;;;;;;14.30;13.03;;;;;;;12.22;100.00;96891.78;4951553;28;20233;-47
2022/06/01 05:02:40;;;;;;;13.50;12.30;;;;;;;12.20;100.00;96891.19;4935167;28;20297;-49
2022/06/01 05:05:09;;;;;;;15.03;13.83;;;;;;;12.07;100.00;96904.41;4965394;28;20516;-48
2022/06/01 05:07:37;;;;;;;13.90;12.70;;;;;;;12.22;100.00;96913.03;4952034;28;20706;-46
2022/06/01 05:10:06;;;;;;;13.47;12.37;;;;;;;12.22;100.00;96913.03;4966789;28;20320;-48
2022/06/01 05:12:34;;;;;;;13.83;12.73;;;;;;;12.18;100.00;96916.28;4944756;28;20686;-45
2022/06/01 05:15:05;;;;;;;14.93;13.73;;;;;;;11.96;100.00;96921.72;4961507;28;20324;-51
2022/06/01 05:17:34;;;;;;;13.37;12.07;;;;;;;12.02;100.00;96911.13;4947815;28;20241;-50
2022/06/01 05:20:04;;;;;;;14.33;13.13;;;;;;;12.23;100.00;96908.53;4929824;28;20709;-48
2022/06/01 05:22:32;;;;;;;12.93;11.93;;;;;;;12.00;100.00;96915.00;4954526;28;20975;-50
2022/06/01 05:25:00;;;;;;;13.00;12.00;;;;;;;12.28;100.00;96911.41;4942472;28;20801;-51
2022/06/01 05:27:29;;;;;;;12.60;11.40;;;;;;;12.18;100.00;96911.81;4943697;28;20316;-52
2022/06/01 05:29:57;;;;;;;13.80;12.60;;;;;;;12.38;100.00;96914.50;4954381;28;20966;-47
2022/06/01 05:32:26;;;;;;;12.27;11.27;;;;;;;12.33;100.00;96919.59;4955211;28;20242;-50
2022/06/01 05:34:55;;;;;;;12.93;11.87;;;;;;;12.26;100.00;96913.44;4938959;28;20304;-53
2022/06/01 05:37:23;;;;;;;12.87;11.80;;;;;;;12.44;100.00;96911.03;4963934;28;20209;-49
2022/06/01 05:39:51;;;;;;;13.37;12.37;;;;;;;13.07;100.00;96906.31;4966753;28;20238;-47
2022/06/01 05:42:21;;;;;;;13.80;12.80;;;;;;;13.27;100.00;96900.97;4950135;28;20733;-47
2022/06/01 05:44:49;;;;;;;12.47;11.37;;;;;;;13.40;100.00;96897.47;4950966;28;20823;-48
2022/06/01 05:47:17;;;;;;;14.33;13.20;;;;;;;13.58;100.00;96909.28;4933487;28;20281;-49
2022/06/01 05:49:48;;;;;;;17.17;15.77;;;;;;;13.64;100.00;96903.16;4934453;28;20846;-53
2022/06/01 05:52:18;;;;;;;14.90;13.70;;;;;;;14.25;100.00;96910.84;4955778;28;20792;-48
2022/06/01 05:54:47;;;;;;;13.00;11.90;;;;;;;14.35;100.00;96911.19;4954717;28;20774;-49
2022/06/01 05:57:15;;;;;;;11.97;11.17;;;;;;;14.29;100.00;96910.19;4968923;28;20714;-53
2022/06/01 05:59:44;;;;;;;12.87;11.87;;;;;;;14.23;100.00;96905.72;4948873;28;20297;-51
2022/06/01 06:02:12;;;;;;;12.27;11.37;;;;;;;14.07;100.00;96909.72;4953508;28;20304;-51
2022/06/01 06:04:40;;;;;;;12.13;11.33;;;;;;;14.23;100.00;96910.25;4912742;28;21160;-51
2022/06/01 06:07:09;;;;;;;14.17;12.97;;;;;;;14.32;100.00;96907.09;4962399;28;20311;-48
2022/06/01 06:09:37;;;;;;;13.67;12.70;;;;;;;14.61;100.00;96914.72;4951880;28;20503;-47
2022/06/01 06:12:06;;;;;;;14.70;13.40;;;;;;;14.74;100.00;96911.97;4973276;28;20642;-49
2022/06/01 06:14:35;;;;;;;13.93;12.93;;;;;;;14.95;100.00;96906.47;4945408;28;21181;-47
2022/06/01 06:17:03;;;;;;;13.37;12.47;;;;;;;15.08;100.00;96905.53;4957036;28;20329;-50
2022/06/01 06:19:31;;;;;;;13.53;12.53;;;;;;;14.59;100.00;96906.13;4917515;28;20883;-50
2022/06/01 06:22:00;;;;;;;12.53;11.63;;;;;;;14.23;100.00;96907.59;4959722;28;20217;-48
2022/06/01 06:24:30;;;;;;;12.97;11.93;;;;;;;14.06;100.00;96913.41;4953832;28;20312;-51
2022/06/01 06:26:58;;;;;;;12.73;11.80;;;;;;;13.89;100.00;96905.91;4967818;28;20337;-52
2022/06/01 06:29:26;;;;;;;13.30;12.40;;;;;;;13.68;100.00;96916.84;4947845;28;20307;-50
2022/06/01 06:31:54;;;;;;;14.73;13.40;;;;;;;14.04;100.00;96912.81;4968118;28;20233;-49
2022/06/01 06:34:22;;;;;;;13.83;12.80;;;;;;;14.36;100.00;96910.16;4934720;28;20584;-51
2022/06/01 06:36:51;;;;;;;13.83;12.83;;;;;;;14.09;100.00;96899.66;4955520;28;20497;-47
2022/06/01 06:39:19;;;;;;;12.83;11.93;;;;;;;14.56;100.00;96907.38;4954421;28;20344;-51
2022/06/01 06:41:49;;;;;;;12.23;11.37;;;;;;;15.09;100.00;96904.50;4954741;28;20210;-46
2022/06/01 06:44:17;;;;;;;12.63;11.67;;;;;;;15.47;100.00;96908.84;4947287;28;20237;-49
2022/06/01 06:46:45;;;;;;;12.20;11.30;;;;;;;15.51;100.00;96899.34;4969178;28;20496;-50
2022/06/01 06:49:14;;;;;;;11.77;10.87;;;;;;;15.42;100.00;96893.47;4953543;28;20313;-53
2022/06/01 06:51:42;;;;;;;11.70;10.87;;;;;;;15.43;100.00;96902.31;4940193;28;20506;-52
2022/06/01 06:54:11;;;;;;;11.87;11.00;;;;;;;15.60;100.00;96900.69;4957685;28;20249;-48
2022/06/01 06:56:39;;;;;;;12.70;11.80;;;;;;;15.66;100.00;96898.16;4952495;28;20305;-51
2022/06/01 06:59:09;;;;;;;11.53;10.73;;;;;;;15.78;100.00;96912.41;4972601;28;20639;-48
2022/06/01 07:01:37;;;;;;;10.73;10.00;;;;;;;15.31;100.00;96907.56;4947722;28;20301;-50
2022/06/01 07:04:05;;;;;;;10.47;9.77;;;;;;;15.39;100.00;96906.47;4956515;28;20333;-54
2022/06/01 07:06:34;;;;;;;10.97;9.87;;;;;;;15.57;100.00;96905.66;4931934;28;20694;-56
2022/06/01 07:09:02;;;;;;;11.03;10.27;;;;;;;15.85;100.00;96905.13;4970813;28;20248;-47
2022/06/01 07:11:32;;;;;;;10.07;9.37;;;;;;;15.88;100.00;96904.69;4939804;28;20316;-51
2022/06/01 07:14:01;;;;;;;10.63;9.83;;;;;;;15.99;100.00;96905.81;4969513;28;20758;-53
2022/06/01 07:16:32;;;;;;;11.47;10.60;;;;;;;15.96;100.00;96906.25;4945358;28;20249;-52
2022/06/01 07:19:02;;;;;;;10.97;10.17;;;;;;;15.97;100.00;96913.22;4952999;28;20883;-51
2022/06/01 07:21:31;;;;;;;12.10;11.20;;;;;;;16.17;100.00;96915.63;4932608;28;20966;-49
2022/06/01 07:24:00;;;;;;;11.60;10.70;;;;;;;16.15;100.00;96917.72;4967726;28;20316;-53
2022/06/01 07:26:32;;;;;;;10.73;9.90;;;;;;;16.34;100.00;96910.47;4941708;28;20220;-52
2022/06/01 07:29:00;;;;;;;11.73;10.70;;;;;;;16.30;100.00;96916.50;4969326;28;20609;-53
2022/06/01 07:31:30;;;;;;;11.33;10.53;;;;;;;16.54;100.00;96919.25;4954660;28;20237;-50
2022/06/01 07:33:59;;;;;;;11.37;10.37;;;;;;;16.34;100.00;96915.81;4968593;28;20531;-55
2022/06/01 07:36:30;;;;;;;11.90;10.73;;;;;;;16.38;100.00;96910.81;4925412;28;20660;-50
2022/06/01 07:44:38;;;;;;;12.97;12.07;;;;;;;16.47;100.00;96916.66;4966659;28;20435;-48
2022/06/01 07:47:09;;;;;;;14.30;13.10;;;;;;;16.58;100.00;96918.53;4946620;28;20675;-48
2022/06/01 07:49:57;;;;;;;14.13;12.67;;;;;;;16.71;100.00;96919.41;4954383;28;20202;-51
2022/06/01 07:52:45;;;;;;;14.87;13.47;;;;;;;16.80;100.00;96909.97;4931130;28;20331;-48
2022/06/01 07:55:13;;;;;;;14.60;13.30;;;;;;;16.77;100.00;96908.56;4960242;28;20757;-47
2022/06/01 07:57:41;;;;;;;14.70;13.60;;;;;;;16.75;100.00;96915.22;4939706;28;20940;-51
2022/06/01 08:00:11;;;;;;;14.33;13.03;;;;;;;17.07;100.00;96904.22;4969428;28;20222;-48
2022/06/01 08:02:40;;;;;;;15.37;14.17;;;;;;;16.62;100.00;96914.34;4947592;28;20324;-49
2022/06/01 08:05:10;;;;;;;14.90;13.57;;;;;;;17.00;100.00;96917.72;4953530;28;20876;-51
2022/06/01 08:07:38;;;;;;;15.00;13.80;;;;;;;16.91;100.00;96919.06;4931635;28;20876;-50
2022/06/01 08:10:07;;;;;;;15.60;14.30;;;;;;;17.13;100.00;96918.53;4972021;28;20292;-48
2022/06/01 08:15:22;;;;;;;15.20;13.87;;;;;;;17.29;100.00;96914.34;4967334;28;20275;-50
2022/06/01 08:17:54;;;;;;;19.17;13.50;;;;;;;17.31;100.00;96909.56;4947279;28;20564;-50
2022/06/01 08:20:23;;;;;;;13.40;12.37;;;;;;;17.46;100.00;96917.09;4956409;28;20244;-48
2022/06/01 08:22:52;;;;;;;13.50;12.10;;;;;;;17.63;100.00;96917.19;4960982;28;20754;-49
2022/06/01 08:25:21;;;;;;;14.10;13.00;;;;;;;17.36;100.00;96902.47;4932190;28;20571;-49
2022/06/01 08:27:50;;;;;;;13.27;12.10;;;;;;;17.58;100.00;96904.50;4965946;28;20384;-53
2022/06/01 08:30:21;;;;;;;10.73;9.83;;;;;;;17.75;100.00;96898.44;4953119;28;20300;-50
2022/06/01 08:32:50;;;;;;;11.27;10.37;;;;;;;17.66;100.00;96900.66;4941708;28;21513;-52
2022/06/01 08:35:22;;;;;;;12.90;11.70;;;;;;;17.95;100.00;96898.03;4968900;28;20252;-47
2022/06/01 08:37:51;;;;;;;11.23;10.23;;;;;;;18.13;100.00;96899.72;4957821;28;20437;-50
2022/06/01 08:40:22;;;;;;;9.57;8.80;;;;;;;18.13;100.00;96897.03;4922392;28;20233;-47
2022/06/01 08:42:56;;;;;;;9.57;8.80;;;;;;;18.21;100.00;96910.06;4965987;28;20300;-52
2022/06/01 08:45:25;;;;;;;11.40;10.47;;;;;;;18.26;100.00;96898.63;4951146;28;20675;-49
2022/06/01 08:47:53;;;;;;;10.83;9.93;;;;;;;18.34;100.00;96900.91;4944785;28;20255;-48
2022/06/01 08:50:27;;;;;;;10.77;10.07;;;;;;;18.50;100.00;96904.69;4965790;28;20245;-50
2022/06/01 08:52:57;;;;;;;10.37;9.60;;;;;;;18.57;100.00;96901.84;4951428;28;20303;-51
2022/06/01 08:55:27;;;;;;;9.30;8.70;;;;;;;18.74;100.00;96901.84;4919697;28;20590;-52
2022/06/01 08:57:58;;;;;;;10.10;9.30;;;;;;;18.87;100.00;96907.97;4965633;28;20250;-47
2022/06/01 09:00:29;;;;;;;9.30;8.70;;;;;;;18.83;100.00;96901.44;4946203;28;20304;-51
2022/06/01 09:03:07;;;;;;;9.20;8.60;;;;;;;18.96;100.00;96909.16;4967828;28;20347;-54
2022/06/01 09:05:45;;;;;;;9.37;8.57;;;;;;;19.06;100.00;96905.88;4945968;28;22204;-51
2022/06/01 09:08:23;;;;;;;8.87;8.30;;;;;;;19.02;100.00;96899.38;4955112;28;20283;-51
2022/06/01 09:11:05;;;;;;;9.07;8.37;;;;;;;19.19;100.00;96907.41;4917645;28;20546;-49
2022/06/01 09:13:51;;;;;;;8.93;8.13;;;;;;;19.40;100.00;96896.94;4963268;28;20551;-51
2022/06/01 09:16:22;;;;;;;9.00;8.30;;;;;;;19.48;100.00;96894.63;4951310;28;20356;-48
2022/06/01 09:18:52;;;;;;;8.20;7.43;;;;;;;19.40;100.00;96896.94;4948686;28;21311;-47
2022/06/01 09:24:11;;;;;;;7.37;6.87;;;;;;;19.67;100.00;96887.09;4953418;28;20304;-50
2022/06/01 09:26:57;;;;;;;8.33;7.67;;;;;;;19.93;100.00;96891.97;4932864;28;20431;-50
2022/06/01 09:29:29;;;;;;;6.37;5.93;;;;;;;19.92;100.00;96891.19;4966556;28;20269;-49
2022/06/01 09:32:00;;;;;;;7.20;6.60;;;;;;;20.13;100.00;96891.38;4952568;28;20307;-47
2022/06/01 09:34:37;;;;;;;5.40;5.00;;;;;;;20.35;100.00;96890.53;4953656;28;20202;-51
2022/06/01 09:37:10;;;;;;;6.13;5.70;;;;;;;20.18;100.00;96888.75;4965395;28;20790;-50
2022/06/01 09:39:40;;;;;;;6.57;6.07;;;;;;;20.64;100.00;96883.00;4951013;28;20271;-46
2022/06/01 09:42:14;;;;;;;6.03;5.63;;;;;;;21.02;100.00;96874.94;4936831;28;20336;-53
2022/06/01 09:44:45;;;;;;;6.03;5.63;;;;;;;21.02;100.00;96882.22;4963857;28;20206;-49
2022/06/01 09:47:28;;;;;;;5.30;4.83;;;;;;;21.77;100.00;96875.91;4948427;28;20321;-52
2022/06/01 09:49:58;;;;;;;5.43;5.07;;;;;;;22.25;93.29;96876.59;4948854;28;20550;-53
2022/06/01 09:52:32;;;;;;;5.83;5.53;;;;;;;22.55;90.80;96882.31;4962291;28;20217;-50
2022/06/01 09:55:10;;;;;;;5.13;4.73;;;;;;;22.85;82.37;96875.28;4952401;28;20631;-51
2022/06/01 09:57:38;;;;;;;4.63;4.27;;;;;;;22.29;75.89;96870.66;4926047;28;20683;-55
2022/06/01 10:06:12;;;;;;;5.23;3.80;;;;;;;22.61;77.14;96870.44;4948880;28;20691;-53
2022/06/01 10:08:44;;;;;;;3.77;3.53;;;;;;;21.97;77.10;96875.97;4949016;28;20444;-48
2022/06/01 10:11:31;;;;;;;2.53;2.43;;;;;;;22.38;53.48;96869.03;4964528;28;20290;-53
2022/06/01 10:14:09;;;;;;;3.13;2.60;;;;;;;22.53;53.82;96877.16;4938004;28;20217;-48
2022/06/01 10:16:45;;;;;;;3.03;2.73;;;;;;;22.90;52.65;96869.88;4970058;28;20795;-49
2022/06/01 10:19:16;;;;;;;3.33;3.03;;;;;;;22.59;53.54;96866.41;4958775;28;20221;-49
2022/06/01 10:21:53;;;;;;;2.33;2.23;;;;;;;22.04;55.12;96872.22;4948902;28;20253;-54
2022/06/01 10:24:25;;;;;;;2.30;2.20;;;;;;;21.42;58.11;96870.06;4964462;28;20299;-48
2022/06/01 10:26:58;;;;;;;2.67;2.47;;;;;;;21.64;60.86;96872.63;4966776;28;20656;-51
2022/06/01 10:29:30;;;;;;;2.20;2.10;;;;;;;21.83;64.88;96881.06;4932596;28;20344;-47
2022/06/01 10:32:04;;;;;;;2.10;2.00;;;;;;;21.92;56.17;96867.03;4972305;28;20698;-48
2022/06/01 10:34:37;;;;;;;2.10;1.93;;;;;;;22.44;59.38;96873.34;4948282;28;20310;-47
2022/06/01 10:37:13;;;;;;;3.93;2.70;;;;;;;22.36;47.58;96866.63;4953129;28;20801;-52
2022/06/01 10:39:46;;;;;;;2.47;2.20;;;;;;;22.29;52.58;96868.75;4972508;28;20291;-48
2022/06/01 10:42:18;;;;;;;2.07;1.97;;;;;;;22.96;46.34;96865.31;4955025;28;20261;-46
2022/06/01 10:44:51;;;;;;;3.67;3.37;;;;;;;23.49;44.18;96858.72;4932691;28;20217;-51
2022/06/01 10:47:24;;;;;;;2.00;1.83;;;;;;;23.47;44.07;96858.97;4967909;28;20225;-47
2022/06/01 10:49:57;;;;;;;1.40;1.37;;;;;;;23.10;43.86;96854.72;4950450;28;20972;-52
2022/06/01 10:52:29;;;;;;;1.60;1.50;;;;;;;22.99;41.16;96851.25;4947536;28;20727;-50
2022/06/01 10:55:08;;;;;;;1.50;1.50;;;;;;;22.84;43.12;96843.97;4970675;28;20205;-49
2022/06/01 10:57:39;;;;;;;2.33;1.97;;;;;;;23.43;46.56;96849.78;4946045;28;20225;-47
2022/06/01 11:00:09;;;;;;;1.30;1.30;;;;;;;23.42;40.40;96835.50;4931942;28;20213;-54
2022/06/01 11:03:09;;;;;;;4.33;1.57;;;;;;;23.43;38.34;96841.69;4963897;28;20862;-51
2022/06/01 11:05:44;;;;;;;1.33;1.33;;;;;;;23.37;39.03;96831.97;4866447;29;20280;-49
2022/06/01 11:08:31;;;;;;;1.60;1.50;;;;;;;23.53;39.11;96836.25;4861351;29;20240;-46
2022/06/01 11:11:06;;;;;;;1.80;1.70;;;;;;;23.29;39.53;96841.47;4880033;29;20221;-45
2022/06/01 11:14:00;;;;;;;2.27;1.63;;;;;;;23.22;41.28;96838.22;4862798;29;20542;-44
2022/06/01 11:16:42;;;;;;;2.80;1.70;;;;;;;23.91;37.73;96835.81;4844448;29;20217;-48
2022/06/01 11:19:19;;;;;;;1.67;1.63;;;;;;;23.91;38.77;96830.38;4882900;29;21222;-48
2022/06/01 11:21:54;;;;;;;1.50;1.50;;;;;;;24.43;35.75;96836.31;4865727;29;20241;-47
2022/06/01 11:24:44;;;;;;;1.60;1.60;;;;;;;24.06;37.85;96832.22;4865143;29;20739;-49
2022/06/01 11:27:32;;;;;;;2.80;1.70;;;;;;;24.46;36.92;96836.81;4881938;29;20250;-49
2022/06/01 11:30:07;;;;;;;1.83;1.57;;;;;;;24.52;36.14;96839.22;4878448;29;20576;-50
2022/06/01 11:32:41;;;;;;;2.47;2.07;;;;;;;24.56;35.21;96832.16;4844641;29;20492;-49
2022/06/01 11:35:17;;;;;;;2.00;1.90;;;;;;;24.71;35.89;96830.38;4883391;29;20211;-50
2022/06/01 11:37:51;;;;;;;1.47;1.47;;;;;;;24.47;37.17;96830.31;4868906;29;20556;-54
2022/06/01 11:40:45;;;;;;;1.73;1.63;;;;;;;24.09;36.97;96823.53;4858196;29;20294;-49
2022/06/01 11:43:23;;;;;;;1.53;1.43;;;;;;;24.41;36.28;96832.25;4950023;28;20217;-48
2022/06/01 11:45:54;;;;;;;1.60;1.60;;;;;;;24.70;36.87;96823.34;4959209;28;20552;-52
2022/06/01 11:48:26;;;;;;;1.90;1.80;;;;;;;23.74;39.24;96830.75;4914188;28;20642;-47
2022/06/01 11:50:58;;;;;;;2.20;2.10;;;;;;;23.76;40.43;96830.47;4972613;28;20202;-48
2022/06/01 11:53:34;;;;;;;2.40;1.80;;;;;;;24.14;38.73;96823.50;4957587;28;20466;-53
2022/06/01 11:56:19;;;;;;;1.80;1.70;;;;;;;24.04;39.43;96823.59;4946140;28;20221;-50
2022/06/01 11:59:04;;;;;;;1.50;1.40;;;;;;;25.09;37.51;96816.25;4965185;28;20257;-43